Time;durP1;ratioP1;P1;durP2;ratioP2;P2;SDS_P1;SDS_P2;PMS_P1;PMS_P2;Temp;Humidity;BMP_temperature;BMP_pressure;BME280_temperature;BME280_humidity;BME280_pressure;Samples;Min_cycle;Max_cycle;Signal;HPM_P1;HPM_P2
2023/03/20 05:30:28;;;;;;;;;2.25;2.25;;;;;9.89;55.22;101770.63;5061218;27;45507;-74
2023/03/20 05:32:54;;;;;;;;;4.75;3.25;;;;;9.77;55.51;101753.09;5043781;28;45542;-74
2023/03/20 05:35:19;;;;;;;;;4.75;4.00;;;;;9.84;55.51;101764.53;5055334;28;45402;-77
2023/03/20 05:37:45;;;;;;;;;3.25;3.25;;;;;9.77;55.63;101765.63;5055478;28;46054;-75
2023/03/20 05:40:13;;;;;;;;;4.25;4.25;;;;;9.82;55.54;101761.88;5054715;28;45388;-74
2023/03/20 05:42:38;;;;;;;;;4.50;3.00;;;;;9.91;55.09;101760.75;5055077;28;45320;-73
2023/03/20 05:45:05;;;;;;;;;5.00;4.00;;;;;9.84;55.01;101738.63;5054145;28;52235;-75
2023/03/20 05:47:30;;;;;;;;;2.00;2.00;;;;;9.97;54.97;101768.63;5054786;28;46307;-73
2023/03/20 05:49:55;;;;;;;;;3.00;2.75;;;;;9.90;54.82;101771.50;5054283;28;45336;-76
2023/03/20 05:52:21;;;;;;;;;2.75;2.75;;;;;9.77;55.13;101762.94;5054837;28;45398;-74
2023/03/20 05:54:47;;;;;;;;;8.50;4.00;;;;;9.65;54.96;101755.22;5054265;28;49383;-74
2023/03/20 05:57:13;;;;;;;;;4.00;4.00;;;;;9.79;55.06;101774.47;5060626;28;45457;-75
2023/03/20 05:59:38;;;;;;;;;2.75;2.75;;;;;9.81;54.96;101770.84;5058400;28;45241;-74
2023/03/20 06:02:03;;;;;;;;;3.00;3.00;;;;;9.83;55.14;101773.47;5054580;28;45319;-73
2023/03/20 06:04:29;;;;;;;;;2.75;2.75;;;;;9.79;54.73;101777.16;5054476;28;45486;-75
2023/03/20 06:06:54;;;;;;;;;3.00;3.00;;;;;9.75;55.14;101776.38;5066900;28;45267;-77
2023/03/20 06:09:20;;;;;;;;;3.00;3.00;;;;;9.64;54.78;101769.50;5075756;28;45566;-71
2023/03/20 06:11:45;;;;;;;;;6.00;3.50;;;;;9.79;55.03;101793.22;5036669;28;45438;-72
2023/03/20 06:14:11;;;;;;;;;3.00;3.00;;;;;9.88;54.78;101791.19;5053723;28;45488;-75
2023/03/20 06:16:36;;;;;;;;;3.00;3.00;;;;;9.84;54.41;101777.91;5054166;28;46413;-74
2023/03/20 06:19:01;;;;;;;;;5.25;3.75;;;;;9.93;54.42;101798.22;5054278;28;45469;-75
2023/03/20 06:21:27;;;;;;;;;5.25;3.00;;;;;9.88;54.66;101795.66;5054755;28;45355;-75
2023/03/20 06:23:53;;;;;;;;;7.25;4.00;;;;;9.91;54.49;101795.59;5054108;28;45391;-72
2023/03/20 06:26:19;;;;;;;;;4.75;3.25;;;;;10.00;54.72;101792.66;5036240;28;47711;-77
2023/03/20 06:28:45;;;;;;;;;5.50;4.00;;;;;9.79;54.29;101766.44;5054237;28;45433;-76
2023/03/20 06:31:11;;;;;;;;;3.00;3.00;;;;;9.97;54.68;101795.41;5054000;28;45321;-75
2023/03/20 06:33:36;;;;;;;;;6.25;3.00;;;;;10.10;54.80;101790.63;5053732;28;45340;-73
2023/03/20 06:36:03;;;;;;;;;3.25;3.25;;;;;10.18;54.05;101792.19;5054072;28;46375;-75
2023/03/20 06:38:28;;;;;;;;;3.00;3.00;;;;;10.08;53.27;101766.53;5058616;28;45442;-75
2023/03/20 06:40:54;;;;;;;;;5.50;3.00;;;;;10.13;53.49;101778.00;5065541;28;45360;-74
2023/03/20 06:43:19;;;;;;;;;3.50;3.50;;;;;10.22;53.90;101780.47;5053866;28;45286;-77
2023/03/20 06:45:45;;;;;;;;;4.00;3.25;;;;;10.16;53.76;101771.69;5053673;28;45225;-76
2023/03/20 06:48:10;;;;;;;;;1.50;1.00;;;;;10.04;53.57;101756.81;5053868;28;46616;-79
2023/03/20 06:50:36;;;;;;;;;3.75;3.75;;;;;10.07;53.53;101762.09;5054098;28;45379;-76
2023/03/20 06:53:02;;;;;;;;;5.50;3.50;;;;;9.92;53.75;101750.94;5055518;28;45515;-82
2023/03/20 06:55:35;;;;;;;;;7.25;3.50;;;;;10.07;53.66;101777.28;5057860;28;46194;-85
2023/03/20 06:58:00;;;;;;;;;3.00;3.00;;;;;10.00;53.73;101771.22;5068121;28;45557;-78
2023/03/20 07:00:25;;;;;;;;;4.25;3.00;;;;;10.03;53.89;101773.84;5057442;28;45389;-75
2023/03/20 07:02:51;;;;;;;;;8.75;3.00;;;;;9.99;53.78;101760.56;5056622;28;52488;-80
2023/03/20 07:05:17;;;;;;;;;6.50;5.00;;;;;10.16;53.49;101780.59;5057276;28;45636;-79
2023/03/20 07:07:42;;;;;;;;;3.00;3.00;;;;;10.20;53.75;101774.28;5055504;28;45415;-74
2023/03/20 07:10:08;;;;;;;;;3.00;3.00;;;;;10.33;52.83;101779.28;5057642;28;45323;-77
2023/03/20 07:12:34;;;;;;;;;4.25;3.00;;;;;10.42;53.04;101776.34;5057192;28;45541;-77
2023/03/20 07:14:59;;;;;;;;;6.25;4.00;;;;;10.52;53.37;101773.34;5038811;28;46790;-76
2023/03/20 07:17:25;;;;;;;;;6.50;2.75;;;;;10.56;52.71;101768.75;5057387;28;45480;-77
2023/03/20 07:19:51;;;;;;;;;8.75;6.75;;;;;10.65;52.62;101792.63;5058022;28;45391;-79
2023/03/20 07:22:22;;;;;;;;;3.25;3.25;;;;;10.56;52.61;101783.06;5040026;28;47779;-77
2023/03/20 07:24:48;;;;;;;;;4.50;4.50;;;;;10.69;52.67;101785.38;5056926;28;46187;-76
2023/03/20 07:27:13;;;;;;;;;4.00;4.00;;;;;10.48;52.09;101757.38;5056773;28;45865;-81
2023/03/20 07:29:39;;;;;;;;;3.75;3.75;;;;;10.69;52.16;101785.38;5038545;28;45512;-74
2023/03/20 07:32:04;;;;;;;;;3.50;2.75;;;;;10.67;52.28;101785.44;5064071;28;45655;-72
2023/03/20 07:34:29;;;;;;;;;6.00;3.25;;;;;10.73;52.12;101787.91;5070710;28;45993;-74
2023/03/20 07:36:55;;;;;;;;;3.75;3.75;;;;;10.67;52.38;101781.88;5073932;28;45454;-76
2023/03/20 07:39:20;;;;;;;;;4.25;4.25;;;;;10.71;52.42;101779.06;5056711;28;45287;-75
2023/03/20 07:41:46;;;;;;;;;3.00;3.00;;;;;10.72;51.99;101780.78;5056477;28;45272;-78
2023/03/20 07:44:13;;;;;;;;;8.00;3.50;;;;;10.86;51.78;101793.81;5037754;28;45914;-77
2023/03/20 07:46:39;;;;;;;;;4.00;4.00;;;;;10.76;52.07;101770.88;5058952;28;45509;-78
2023/03/20 07:49:05;;;;;;;;;3.00;3.00;;;;;10.86;52.17;101789.31;5076678;28;45264;-77
2023/03/20 07:51:31;;;;;;;;;5.25;2.75;;;;;10.84;52.13;101785.81;5076162;28;45462;-77
2023/03/20 07:53:56;;;;;;;;;5.25;3.75;;;;;10.84;51.87;101777.75;5076440;28;46193;-75
2023/03/20 07:56:21;;;;;;;;;5.00;4.00;;;;;10.96;51.61;101788.13;5076377;28;45328;-75
2023/03/20 07:58:47;;;;;;;;;3.25;3.25;;;;;10.90;52.01;101785.59;5066299;28;45586;-75
2023/03/20 08:01:12;;;;;;;;;3.00;3.00;;;;;10.81;51.93;101763.53;5077228;28;45263;-76
2023/03/20 08:03:38;;;;;;;;;3.25;3.00;;;;;11.05;51.44;101789.66;5075318;28;45383;-77
2023/03/20 08:06:06;;;;;;;;;5.00;3.25;;;;;10.79;52.11;101752.88;5072662;28;45552;-77
2023/03/20 08:08:32;;;;;;;;;3.00;3.00;;;;;11.04;51.96;101785.19;5076366;28;45425;-75
2023/03/20 08:10:57;;;;;;;;;3.00;3.00;;;;;10.94;52.08;101779.22;5076211;28;45351;-77
2023/03/20 08:13:22;;;;;;;;;6.25;4.00;;;;;11.06;51.96;101791.38;5076205;28;46324;-74
2023/03/20 08:15:48;;;;;;;;;4.25;4.25;;;;;11.08;52.21;101791.34;5075956;28;45508;-76
2023/03/20 08:18:13;;;;;;;;;4.75;4.75;;;;;11.14;52.00;101788.47;5075959;28;47632;-75
2023/03/20 08:20:38;;;;;;;;;4.50;3.50;;;;;11.23;51.95;101793.53;5076095;28;45580;-77
2023/03/20 08:23:04;;;;;;;;;4.75;3.00;;;;;11.12;51.83;101793.88;5076185;28;45978;-76
2023/03/20 08:25:32;;;;;;;;;3.75;3.75;;;;;11.18;51.94;101792.81;5075350;28;45288;-76
2023/03/20 08:27:59;;;;;;;;;3.75;3.75;;;;;11.31;51.66;101811.13;5075008;28;45448;-75
2023/03/20 08:30:25;;;;;;;;;4.50;3.00;;;;;11.43;52.01;101807.19;5056901;28;46684;-76
2023/03/20 08:32:50;;;;;;;;;3.00;3.00;;;;;11.55;51.81;101803.25;5074818;28;45433;-76
2023/03/20 08:35:15;;;;;;;;;5.50;4.50;;;;;11.61;51.64;101817.34;5075887;28;47041;-76
2023/03/20 08:37:41;;;;;;;;;4.25;2.50;;;;;11.56;51.98;101799.63;5075458;28;45477;-78
2023/03/20 08:40:06;;;;;;;;;5.00;3.75;;;;;11.75;51.41;101822.28;5054608;28;46318;-78
2023/03/20 08:42:32;;;;;;;;;2.00;2.00;;;;;11.68;51.53;101821.56;5075697;28;45448;-78
2023/03/20 08:44:57;;;;;;;;;5.00;2.00;;;;;11.64;52.03;101816.38;5075205;28;45499;-76
2023/03/20 08:47:22;;;;;;;;;3.00;3.00;;;;;11.75;51.50;101833.91;5075980;28;45328;-77
2023/03/20 08:49:48;;;;;;;;;3.25;1.25;;;;;11.72;51.41;101819.69;5075384;28;45488;-78
2023/03/20 08:52:13;;;;;;;;;4.00;4.00;;;;;11.61;52.05;101811.97;5054932;28;46841;-76
2023/03/20 08:54:39;;;;;;;;;2.75;2.75;;;;;11.76;51.94;101832.09;5074620;28;45512;-78
2023/03/20 08:57:05;;;;;;;;;2.75;2.75;;;;;11.76;52.21;101834.78;5070452;28;45955;-78
2023/03/20 08:59:30;;;;;;;;;3.75;3.50;;;;;11.64;51.93;101830.69;5056955;28;45490;-75
2023/03/20 09:01:56;;;;;;;;;3.25;3.00;;;;;11.59;52.55;101823.69;5065663;28;46588;-77
2023/03/20 09:04:21;;;;;;;;;2.00;2.00;;;;;11.65;52.56;101821.66;5060170;28;45335;-78
2023/03/20 09:06:46;;;;;;;;;3.75;3.75;;;;;11.80;52.49;101819.44;5052816;28;45490;-75
2023/03/20 09:09:14;;;;;;;;;6.00;2.25;;;;;11.85;52.24;101815.66;5060567;28;45552;-80
2023/03/20 09:11:40;;;;;;;;;2.25;2.25;;;;;11.85;52.44;101799.53;5054682;28;46297;-77
2023/03/20 09:14:05;;;;;;;;;3.75;3.75;;;;;11.92;52.38;101797.50;5054833;28;45362;-78
2023/03/20 09:16:31;;;;;;;;;3.50;2.50;;;;;11.85;52.15;101767.31;5055424;28;45476;-77
2023/03/20 09:18:56;;;;;;;;;4.00;2.25;;;;;12.15;52.53;101804.78;5055767;28;45470;-76
2023/03/20 09:21:21;;;;;;;;;2.00;2.00;;;;;12.21;52.32;101785.75;5075674;28;45335;-76
2023/03/20 09:23:47;;;;;;;;;3.25;3.25;;;;;12.35;52.34;101788.81;5075946;28;45280;-76
2023/03/20 09:26:12;;;;;;;;;6.50;3.00;;;;;12.45;52.20;101779.47;5076115;28;45244;-75
2023/03/20 09:28:37;;;;;;;;;3.00;3.00;;;;;12.56;52.03;101785.34;5075501;28;45430;-78
2023/03/20 09:31:03;;;;;;;;;4.00;3.00;;;;;12.62;52.45;101785.09;5074518;28;48522;-77
2023/03/20 09:33:28;;;;;;;;;3.50;1.75;;;;;12.82;51.95;101779.84;5074609;28;45369;-77
2023/03/20 09:35:53;;;;;;;;;10.00;3.00;;;;;12.91;51.82;101775.91;5075369;28;45331;-77
2023/03/20 09:38:20;;;;;;;;;4.25;2.00;;;;;13.19;51.87;101784.66;5075131;28;45224;-80
2023/03/20 09:41:01;;;;;;;;;3.00;3.00;;;;;13.34;50.96;101785.00;5074839;28;45282;-75
2023/03/20 09:44:01;;;;;;;;;4.75;3.00;;;;;13.41;50.63;101784.69;5045842;28;45505;-78
2023/03/20 09:46:40;;;;;;;;;4.00;3.25;;;;;13.39;49.38;101789.25;5056679;28;45336;-78
2023/03/20 09:49:24;;;;;;;;;3.50;2.00;;;;;13.44;49.54;101795.31;5074339;28;45438;-78
2023/03/20 09:51:59;;;;;;;;;4.00;1.00;;;;;13.31;49.23;101766.28;5074874;28;45382;-80
2023/03/20 09:54:53;;;;;;;;;3.00;2.00;;;;;13.49;48.80;101809.50;5074609;28;45452;-80
2023/03/20 09:57:41;;;;;;;;;3.00;2.75;;;;;13.69;49.32;101806.00;5046730;28;45446;-79
2023/03/20 10:00:17;;;;;;;;;2.00;2.00;;;;;13.85;48.93;101798.13;5073641;28;45466;-79
2023/03/20 10:02:52;;;;;;;;;4.00;2.00;;;;;14.06;48.56;101807.97;5056395;28;47025;-78
2023/03/20 10:05:37;;;;;;;;;3.00;1.00;;;;;14.04;48.00;101790.97;5074473;28;45471;-78
2023/03/20 10:08:06;;;;;;;;;3.00;1.00;;;;;14.09;47.37;101801.56;5068013;28;45465;-77
2023/03/20 10:10:50;;;;;;;;;6.00;3.25;;;;;14.09;48.10;101801.56;5053786;28;45532;-77
2023/03/20 10:13:21;;;;;;;;;3.00;3.00;;;;;14.19;47.73;101805.63;5054291;28;46523;-78
2023/03/20 10:16:03;;;;;;;;;4.50;3.00;;;;;14.08;47.69;101805.22;5053767;28;45428;-78
2023/03/20 10:18:34;;;;;;;;;2.00;2.00;;;;;13.99;48.09;101783.09;5065084;28;45424;-79
2023/03/20 10:21:12;;;;;;;;;2.00;2.00;;;;;14.24;48.02;101799.06;5054579;28;45484;-79
2023/03/20 10:23:50;;;;;;;;;2.50;2.00;;;;;14.18;47.50;101787.69;5055849;28;47080;-79
2023/03/20 10:26:19;;;;;;;;;1.00;1.00;;;;;14.16;47.81;101785.06;5074248;28;45377;-79
2023/03/20 10:28:53;;;;;;;;;2.00;2.00;;;;;14.17;47.04;101765.25;5074010;28;45205;-80
2023/03/20 10:31:27;;;;;;;;;2.00;2.00;;;;;14.12;47.89;101777.19;5074409;28;45461;-80
2023/03/20 10:34:21;;;;;;;;;2.00;2.00;;;;;14.08;47.50;101775.56;5073780;28;45450;-74
2023/03/20 10:37:04;;;;;;;;;4.75;3.00;;;;;13.94;48.12;101784.25;5074143;28;45413;-78
2023/03/20 10:39:53;;;;;;;;;2.00;2.00;;;;;13.82;48.10;101774.88;5074640;28;45421;-78
2023/03/20 10:42:24;;;;;;;;;5.00;3.00;;;;;13.87;48.70;101774.66;5074102;28;45243;-80
2023/03/20 10:45:27;;;;;;;;;1.75;1.75;;;;;13.91;48.04;101768.19;5072385;28;45807;-77
2023/03/20 10:47:56;;;;;;;;;3.75;2.50;;;;;13.79;48.15;101766.91;5035626;28;45371;-78
2023/03/20 10:50:31;;;;;;;;;4.75;1.00;;;;;13.97;48.10;101774.19;5053974;28;45371;-77
2023/03/20 10:52:59;;;;;;;;;3.00;3.00;;;;;13.98;48.79;101775.94;5053429;28;45418;-78
2023/03/20 10:55:29;;;;;;;;;4.00;2.00;;;;;14.20;48.73;101769.63;5052688;28;45457;-79
2023/03/20 10:58:13;;;;;;;;;4.00;3.00;;;;;14.26;47.91;101745.94;5064256;28;45509;-78
2023/03/20 11:00:39;;;;;;;;;2.00;2.00;;;;;14.56;47.79;101759.88;5035678;28;45524;-77
2023/03/20 11:03:07;;;;;;;;;5.00;3.00;;;;;14.78;47.65;101748.97;5053837;28;45606;-78
2023/03/20 11:05:37;;;;;;;;;3.50;3.00;;;;;14.81;47.32;101756.03;5054689;28;45759;-80
2023/03/20 11:08:22;;;;;;;;;2.00;2.00;;;;;14.87;46.75;101755.75;5069392;28;45364;-78
2023/03/20 11:10:57;;;;;;;;;5.25;2.75;;;;;14.93;47.24;101744.66;5053529;28;45433;-74
2023/03/20 11:13:28;;;;;;;;;3.50;2.00;;;;;15.02;47.17;101728.88;5053619;28;47577;-83
2023/03/20 11:15:54;;;;;;;;;2.25;2.25;;;;;15.38;47.04;101734.31;5053257;28;46048;-77
2023/03/20 11:18:24;;;;;;;;;3.50;3.00;;;;;15.49;46.32;101731.03;5053537;28;45567;-77
2023/03/20 11:20:52;;;;;;;;;2.00;2.00;;;;;15.65;46.25;101726.63;5053287;28;45406;-76
2023/03/20 11:23:44;;;;;;;;;3.75;3.75;;;;;15.65;46.15;101740.16;5035198;28;47263;-78
2023/03/20 11:26:15;;;;;;;;;3.50;3.50;;;;;15.66;46.13;101722.97;5033411;28;46008;-74
2023/03/20 11:28:46;;;;;;;;;3.00;2.00;;;;;15.66;45.79;101714.88;5052507;28;45292;-80
2023/03/20 11:31:12;;;;;;;;;3.00;3.00;;;;;15.84;46.02;101730.13;5053408;28;45275;-78
2023/03/20 11:33:41;;;;;;;;;3.75;3.75;;;;;15.96;45.63;101723.22;5053274;28;45375;-77
2023/03/20 11:36:26;;;;;;;;;4.50;4.50;;;;;15.99;45.61;101714.09;5052993;28;45742;-79
2023/03/20 11:38:52;;;;;;;;;6.00;3.00;;;;;16.14;45.52;101722.25;5035894;28;45460;-77
2023/03/20 11:41:27;;;;;;;;;4.75;4.50;;;;;16.35;45.88;101712.09;5060245;28;45542;-75
2023/03/20 11:43:53;;;;;;;;;7.00;3.50;;;;;16.42;45.35;101709.91;5076743;28;45513;-83
2023/03/20 11:46:22;;;;;;;;;3.50;3.50;;;;;16.32;45.34;101728.50;5058469;28;47996;-74
2023/03/20 11:49:02;;;;;;;;;2.00;2.00;;;;;16.24;45.18;101707.28;5076468;28;45368;-73
2023/03/20 11:51:28;;;;;;;;;3.75;2.25;;;;;16.29;45.23;101725.97;5058169;28;45573;-75
2023/03/20 11:54:01;;;;;;;;;5.00;3.75;;;;;16.11;45.19;101727.81;5076791;28;45346;-78
2023/03/20 11:56:29;;;;;;;;;3.75;2.50;;;;;15.88;45.67;101702.00;5076365;28;45579;-81
2023/03/20 11:59:13;;;;;;;;;5.75;5.00;;;;;15.82;46.08;101698.75;5065257;28;45353;-78
2023/03/20 12:01:45;;;;;;;;;3.00;3.00;;;;;15.98;46.15;101721.31;5058264;28;45424;-77
2023/03/20 12:04:15;;;;;;;;;2.25;2.25;;;;;15.62;46.31;101688.97;5076513;28;45264;-76
2023/03/20 12:06:43;;;;;;;;;3.00;3.00;;;;;15.83;46.28;101720.28;5073086;28;46254;-80
2023/03/20 12:09:37;;;;;;;;;4.75;3.00;;;;;15.76;47.30;101666.59;5043777;28;45384;-76
2023/03/20 12:12:12;;;;;;;;;2.00;2.00;;;;;16.27;46.19;101706.22;5038118;28;45325;-76
2023/03/20 12:14:47;;;;;;;;;5.50;4.00;;;;;16.26;44.92;101691.81;5055774;28;45569;-78
2023/03/20 12:17:35;;;;;;;;;2.00;2.00;;;;;16.17;45.69;101703.13;5038139;28;47267;-77
2023/03/20 12:20:37;;;;;;;;;4.00;4.00;;;;;16.21;46.15;101699.31;5016028;28;45366;-78
2023/03/20 12:23:09;;;;;;;;;3.00;3.00;;;;;16.30;45.62;101697.06;5065231;28;45453;-77
2023/03/20 12:25:58;;;;;;;;;4.50;4.00;;;;;16.50;46.19;101703.13;5075826;28;45477;-79
2023/03/20 12:28:36;;;;;;;;;3.50;3.00;;;;;16.93;44.84;101690.78;5076125;28;45411;-77
2023/03/20 12:31:06;;;;;;;;;3.00;3.00;;;;;17.53;44.63;101688.16;5075762;28;45561;-78
2023/03/20 12:33:40;;;;;;;;;4.50;4.50;;;;;18.29;42.48;101688.91;5076021;28;45318;-77
2023/03/20 12:36:13;;;;;;;;;5.00;3.25;;;;;18.79;41.71;101690.28;5075479;28;45340;-77
2023/03/20 12:38:40;;;;;;;;;3.00;3.00;;;;;18.65;40.71;101680.28;5076396;28;46239;-79
2023/03/20 12:41:37;;;;;;;;;6.50;4.50;;;;;18.99;41.45;101684.38;5079736;28;45467;-78
2023/03/20 12:44:21;;;;;;;;;5.00;3.50;;;;;19.46;40.22;101670.34;5035049;28;45398;-75
2023/03/20 12:47:06;;;;;;;;;3.00;3.00;;;;;19.26;40.31;101673.53;5071062;28;45394;-78
2023/03/20 12:49:43;;;;;;;;;4.00;4.00;;;;;19.28;40.80;101664.28;5049797;28;48628;-78
2023/03/20 12:52:51;;;;;;;;;3.00;3.00;;;;;19.32;41.11;101673.09;5075499;28;45328;-77
2023/03/20 12:55:37;;;;;;;;;6.25;4.00;;;;;19.30;40.36;101671.47;5075878;28;45464;-73
2023/03/20 12:58:26;;;;;;;;;3.75;3.75;;;;;19.30;40.78;101666.91;5062047;28;45394;-74
2023/03/20 13:01:05;;;;;;;;;3.00;3.00;;;;;19.43;39.65;101670.53;5040310;28;46686;-73
2023/03/20 13:03:55;;;;;;;;;6.00;4.00;;;;;19.10;40.69;101670.97;5037660;28;45388;-74
2023/03/20 13:06:54;;;;;;;;;1.25;1.00;;;;;19.03;40.47;101666.91;5062279;28;45310;-72
2023/03/20 13:09:41;;;;;;;;;6.00;3.50;;;;;18.65;41.30;101668.53;5040887;28;45193;-73
2023/03/20 13:12:25;;;;;;;;;3.00;3.00;;;;;18.10;42.45;101661.19;5054884;28;46352;-73
2023/03/20 13:15:11;;;;;;;;;2.00;2.00;;;;;17.86;42.96;101662.72;5054809;28;45465;-73
2023/03/20 13:17:52;;;;;;;;;4.50;3.00;;;;;17.66;43.61;101667.50;5054796;28;45413;-72
2023/03/20 13:20:28;;;;;;;;;5.00;3.25;;;;;17.56;44.01;101647.31;5054614;28;45269;-73
2023/03/20 13:23:17;;;;;;;;;4.75;3.00;;;;;17.54;44.22;101656.50;5024350;28;47702;-73
2023/03/20 13:25:45;;;;;;;;;6.00;4.25;;;;;17.54;43.93;101654.66;5054672;28;45378;-71
2023/03/20 13:28:52;;;;;;;;;3.00;3.00;;;;;17.44;44.52;101637.19;5056561;28;45363;-71
2023/03/20 13:31:50;;;;;;;;;5.50;4.00;;;;;17.72;44.68;101648.16;5054469;28;45526;-71
2023/03/20 13:34:32;;;;;;;;;3.25;3.25;;;;;17.93;44.39;101645.09;5067873;28;45454;-71
2023/03/20 13:37:06;;;;;;;;;5.75;5.50;;;;;17.72;44.53;101640.00;5054012;28;45347;-71
2023/03/20 13:39:48;;;;;;;;;3.25;3.25;;;;;17.86;44.54;101633.75;5073036;28;45472;-72
2023/03/20 13:42:19;;;;;;;;;6.00;4.50;;;;;18.14;43.99;101625.59;5067879;28;45523;-72
2023/03/20 13:44:47;;;;;;;;;4.25;4.00;;;;;18.27;44.17;101627.56;5052539;28;45367;-74
2023/03/20 13:47:21;;;;;;;;;7.25;4.00;;;;;18.40;43.28;101628.50;5070138;28;45434;-72
2023/03/20 13:50:03;;;;;;;;;5.00;5.00;;;;;18.06;44.13;101619.78;5072736;28;45360;-73
2023/03/20 13:52:37;;;;;;;;;7.75;6.25;;;;;18.07;44.24;101629.69;5064676;28;45307;-72
2023/03/20 13:55:26;;;;;;;;;4.25;4.25;;;;;18.04;44.42;101626.28;5075234;28;45541;-72
2023/03/20 13:58:03;;;;;;;;;5.00;5.00;;;;;18.22;44.73;101616.97;5064883;28;45339;-68
2023/03/20 14:01:05;;;;;;;;;4.00;4.00;;;;;18.71;44.53;101620.16;5074595;28;45424;-71
2023/03/20 14:03:37;;;;;;;;;7.75;5.00;;;;;19.24;42.86;101608.38;5061121;28;46026;-73
2023/03/20 14:06:40;;;;;;;;;4.25;4.25;;;;;19.47;41.61;101603.22;5071319;28;45299;-74
2023/03/20 14:09:23;;;;;;;;;3.50;3.50;;;;;19.54;41.10;101590.97;5009442;28;45514;-72
2023/03/20 14:11:51;;;;;;;;;4.00;3.25;;;;;19.95;40.61;101594.34;5053842;28;45463;-73
2023/03/20 14:14:25;;;;;;;;;8.75;4.75;;;;;19.91;40.71;101600.97;5054126;28;45290;-72
2023/03/20 14:17:02;;;;;;;;;4.00;3.00;;;;;19.76;40.41;101593.03;5054436;28;45328;-74
2023/03/20 14:19:28;;;;;;;;;6.00;5.00;;;;;19.61;42.04;101548.75;5059943;28;45308;-75
2023/03/20 14:21:55;;;;;;;;;1.75;0.00;;;;;19.86;41.14;101584.09;5054241;28;45280;-75
2023/03/20 14:24:23;;;;;;;;;4.00;4.00;;;;;19.65;40.74;101575.59;5035971;28;46785;-75
2023/03/20 14:26:56;;;;;;;;;4.50;4.50;;;;;19.49;41.39;101587.66;5053913;28;45518;-76
2023/03/20 14:29:27;;;;;;;;;8.25;4.50;;;;;19.03;42.28;101587.22;5069311;28;45676;-77
2023/03/20 14:32:04;;;;;;;;;6.75;5.00;;;;;18.86;42.57;101583.81;5055884;28;45399;-75
2023/03/20 14:34:45;;;;;;;;;3.00;3.00;;;;;18.67;42.55;101587.84;5056069;28;47221;-73
2023/03/20 14:38:08;;;;;;;;;6.50;5.00;;;;;18.65;43.28;101584.34;5073767;28;46149;-75
2023/03/20 14:40:42;;;;;;;;;6.00;4.00;;;;;18.69;43.14;101575.91;5042929;28;45380;-76
2023/03/20 14:43:29;;;;;;;;;2.75;2.75;;;;;18.66;42.68;101581.53;5074261;28;45485;-74
2023/03/20 14:46:07;;;;;;;;;3.00;3.00;;;;;18.59;43.35;101580.19;5055525;28;46620;-75
2023/03/20 14:48:41;;;;;;;;;5.75;4.25;;;;;18.41;43.29;101579.53;5073164;28;47204;-75
2023/03/20 14:51:19;;;;;;;;;5.50;4.00;;;;;18.26;44.08;101575.09;5055628;28;45476;-75
2023/03/20 14:53:55;;;;;;;;;1.00;1.00;;;;;18.13;44.47;101585.88;5074200;28;45595;-77
2023/03/20 14:56:28;;;;;;;;;4.00;2.75;;;;;17.86;44.63;101552.38;5073859;28;45535;-75
2023/03/20 14:59:01;;;;;;;;;5.25;4.75;;;;;17.94;44.95;101568.16;5053316;28;46194;-73
2023/03/20 15:01:39;;;;;;;;;4.25;4.25;;;;;17.89;45.21;101573.84;5053381;28;45387;-75
2023/03/20 15:04:29;;;;;;;;;3.50;3.50;;;;;17.87;44.93;101569.50;5053518;28;45344;-75
2023/03/20 15:07:12;;;;;;;;;4.00;3.00;;;;;17.63;45.47;101564.66;5065341;28;45620;-75
2023/03/20 15:09:42;;;;;;;;;3.75;3.75;;;;;17.26;45.77;101535.34;5055347;28;45325;-74
2023/03/20 15:12:08;;;;;;;;;3.50;3.50;;;;;17.42;46.09;101563.25;5035236;28;45282;-74
2023/03/20 15:14:50;;;;;;;;;4.00;4.00;;;;;17.42;46.20;101560.53;5055756;28;45535;-75
2023/03/20 15:17:21;;;;;;;;;9.75;5.00;;;;;17.31;46.55;101544.91;5038732;28;47239;-77
2023/03/20 15:19:47;;;;;;;;;4.75;4.00;;;;;17.30;46.99;101553.13;5056819;28;46032;-74
2023/03/20 15:22:19;;;;;;;;;3.50;3.50;;;;;17.24;47.13;101562.53;5056710;28;45375;-75
2023/03/20 15:24:53;;;;;;;;;4.75;4.25;;;;;17.18;47.40;101546.63;5066414;28;45371;-75
2023/03/20 15:27:19;;;;;;;;;4.00;4.00;;;;;17.12;47.77;101555.13;5076851;28;45594;-76
2023/03/20 15:29:51;;;;;;;;;5.00;3.50;;;;;16.95;48.11;101537.16;5076797;28;45244;-76
2023/03/20 15:32:18;;;;;;;;;4.25;4.00;;;;;16.95;48.64;101539.88;5076112;28;45202;-75
2023/03/20 15:34:46;;;;;;;;;7.00;4.50;;;;;16.96;48.54;101552.47;5076814;28;45488;-75
2023/03/20 15:37:17;;;;;;;;;4.50;4.50;;;;;17.01;48.49;101550.34;5076575;28;45489;-75
2023/03/20 15:39:54;;;;;;;;;4.00;4.00;;;;;17.01;48.57;101541.38;5076913;28;45385;-75
2023/03/20 15:42:22;;;;;;;;;4.50;4.50;;;;;16.93;48.92;101522.84;5077076;28;45438;-74
2023/03/20 15:44:51;;;;;;;;;4.75;4.00;;;;;16.91;48.64;101522.09;5058513;28;45360;-75
2023/03/20 15:47:20;;;;;;;;;7.00;5.50;;;;;16.93;48.33;101527.38;5076891;28;45388;-75
2023/03/20 15:49:58;;;;;;;;;3.75;3.75;;;;;16.84;49.08;101528.81;5076444;28;45465;-77
2023/03/20 15:52:40;;;;;;;;;5.00;4.00;;;;;16.77;49.29;101523.84;5076521;28;45342;-76
2023/03/20 15:55:13;;;;;;;;;5.00;5.00;;;;;16.70;49.39;101517.94;5076864;28;45394;-75
2023/03/20 15:57:42;;;;;;;;;3.50;3.50;;;;;16.74;49.74;101518.63;5066770;28;45421;-75
2023/03/20 16:00:20;;;;;;;;;6.00;4.75;;;;;16.67;49.54;101501.88;5063024;28;46257;-75
2023/03/20 16:02:47;;;;;;;;;5.25;4.00;;;;;16.85;49.10;101527.84;5076488;28;45354;-75
2023/03/20 16:05:15;;;;;;;;;4.25;4.25;;;;;16.80;49.02;101512.84;5058610;28;45388;-74
2023/03/20 16:07:40;;;;;;;;;4.50;3.75;;;;;16.83;49.15;101526.22;5065920;28;45708;-74
2023/03/20 16:10:20;;;;;;;;;4.50;4.25;;;;;16.78;49.04;101515.63;5062706;28;45419;-76
2023/03/20 16:12:53;;;;;;;;;5.25;4.00;;;;;16.81;49.26;101520.00;5056367;28;45338;-76
2023/03/20 16:15:20;;;;;;;;;6.50;4.00;;;;;16.83;48.74;101520.78;5056134;28;45331;-74
2023/03/20 16:17:51;;;;;;;;;2.75;2.75;;;;;16.71;48.86;101502.56;5056272;28;45277;-74
2023/03/20 16:20:16;;;;;;;;;4.00;3.00;;;;;16.78;49.03;101510.22;5055635;28;46227;-74
2023/03/20 16:22:44;;;;;;;;;4.25;4.25;;;;;16.79;48.95;101503.84;5069641;28;45267;-74
2023/03/20 16:25:14;;;;;;;;;7.75;4.50;;;;;16.75;48.83;101490.59;5055183;28;45494;-72
2023/03/20 16:27:41;;;;;;;;;5.00;5.00;;;;;16.81;48.81;101491.09;5054275;28;45232;-74
2023/03/20 16:30:15;;;;;;;;;6.25;5.50;;;;;16.69;48.75;101472.84;5068756;28;45543;-74
2023/03/20 16:32:45;;;;;;;;;6.50;5.00;;;;;16.78;49.02;101480.44;5076264;28;45588;-74
2023/03/20 16:35:39;;;;;;;;;6.50;4.00;;;;;16.85;49.07;101470.09;5076622;28;45492;-71
2023/03/20 16:38:32;;;;;;;;;8.50;6.50;;;;;16.93;49.02;101481.34;5068818;28;45480;-76
2023/03/20 16:41:26;;;;;;;;;6.00;4.75;;;;;16.93;49.01;101475.91;5046528;28;47730;-76
2023/03/20 16:43:51;;;;;;;;;5.00;5.00;;;;;16.96;49.40;101479.31;5065702;28;45438;-76
2023/03/20 16:46:21;;;;;;;;;6.75;5.00;;;;;16.78;48.99;101455.19;5076211;28;45432;-77
2023/03/20 16:48:51;;;;;;;;;5.25;5.25;;;;;16.77;49.37;101466.97;5076237;28;45434;-77
2023/03/20 16:51:23;;;;;;;;;5.00;5.00;;;;;16.84;49.44;101477.34;5075687;28;45442;-77
2023/03/20 16:53:52;;;;;;;;;8.75;6.50;;;;;16.77;49.38;101466.97;5076194;28;45453;-77
2023/03/20 16:56:31;;;;;;;;;7.25;5.00;;;;;16.90;49.27;101481.53;5057654;28;45359;-75
2023/03/20 16:58:57;;;;;;;;;8.00;4.50;;;;;16.69;49.71;101469.28;5055669;28;45379;-77
2023/03/20 17:01:27;;;;;;;;;4.75;4.75;;;;;16.72;49.66;101475.41;5054982;28;46212;-76
2023/03/20 17:03:56;;;;;;;;;6.25;5.00;;;;;16.62;50.08;101450.69;5037606;28;45403;-77
2023/03/20 17:06:21;;;;;;;;;5.75;5.00;;;;;16.76;50.23;101478.81;5062687;28;45413;-77
2023/03/20 17:08:50;;;;;;;;;7.00;4.00;;;;;16.78;49.88;101483.13;5064368;28;45374;-77
2023/03/20 17:11:34;;;;;;;;;4.00;4.00;;;;;16.77;50.03;101484.09;5054444;28;46367;-75
2023/03/20 17:14:01;;;;;;;;;5.50;4.00;;;;;16.70;50.01;101461.06;5037735;28;45316;-76
2023/03/20 17:16:27;;;;;;;;;5.25;3.25;;;;;16.69;50.06;101478.28;5075568;28;45457;-77
2023/03/20 17:19:06;;;;;;;;;6.00;3.00;;;;;16.70;50.79;101471.91;5075294;28;45450;-76
2023/03/20 17:21:32;;;;;;;;;3.50;3.50;;;;;16.61;50.44;101443.53;5036839;28;47382;-76